NCAR-RAP Real-Time Weather Data

Output produced by METARs form (08 May 2021  01:11 UTC)
found at http://weather.rap.ucar.edu/surface/
 
KMFI 080054Z AUTO 02006KT 10SM CLR 07/M04 A3006 RMK AO2 SLP190 T00721044
KMFI 072354Z AUTO 35007KT 10SM CLR 08/M03 A3006 RMK AO2 SLP189 T00831033 10111 20083 58002
KMFI 072254Z AUTO 35008KT 10SM BKN065 09/M03 A3006 RMK AO2 SLP189 T00891033
KMFI 072154Z AUTO 35010G18KT 10SM OVC060 09/M03 A3007 RMK AO2 SLP191 T00941028
KMFI 072054Z AUTO 33013G20KT 10SM OVC060 09/M03 A3006 RMK AO2 SLP190 T00941028 52001
KMFI 071954Z AUTO 35013G21KT 10SM OVC060 09/M04 A3006 RMK AO2 SLP189 T00941039
KMFI 071854Z AUTO 36011G20KT 10SM OVC060 09/M04 A3006 RMK AO2 SLP189 T00891039
KMFI 071754Z AUTO 33014G19KT 10SM OVC060 09/M04 A3006 RMK AO2 SLP187 T00891039 10106 20028 51006
KMFI 071654Z AUTO 34013G27KT 10SM BKN060 09/M03 A3006 RMK AO2 PK WND 36028/1621 SLP185 T00891033
KMFI 071554Z AUTO 33017G27KT 10SM OVC050 07/M03 A3005 RMK AO2 PK WND 36028/1456 SLP185 T00721033
KMFI 071454Z AUTO 36018G24KT 10SM FEW040 SCT049 07/M02 A3004 RMK AO2 PK WND 33026/1444 SLP180 T00721022 51007
KMFI 071354Z AUTO 35012KT 10SM CLR 06/01 A3004 RMK AO2 SLP179 T00610006
KMFI 071254Z AUTO 34015G19KT 10SM CLR 04/01 A3003 RMK AO2 SLP176 T00440011
KMFI 071154Z AUTO 34009KT 10SM CLR 03/01 A3002 RMK AO2 SLP172 60002 70002 T00280006 10056 20011 53011
KMFI 071054Z AUTO 33006KT 10SM CLR 02/00 A3000 RMK AO2 SLP167 T00170000
KMFI 071018Z AUTO 32007KT 10SM FEW008 02/01 A3000 RMK AO2 T00220006